createdAt,value
2022-11-24T00:02:03.612Z,2.20
2022-11-24T00:05:05.247Z,1.85
2022-11-24T00:08:06.505Z,1.58
2022-11-24T00:11:12.152Z,1.60
2022-11-24T00:14:13.398Z,2.75
2022-11-24T00:17:14.664Z,1.63
2022-11-24T00:20:15.964Z,2.05
2022-11-24T00:23:17.200Z,2.05
2022-11-24T00:26:20.012Z,2.08
2022-11-24T00:29:21.265Z,2.25
2022-11-24T00:32:22.569Z,1.85
2022-11-24T00:35:23.873Z,2.15
2022-11-24T00:38:25.357Z,2.20
2022-11-24T00:41:27.207Z,2.20
2022-11-24T00:44:28.453Z,1.42
2022-11-24T00:47:32.725Z,2.63
2022-11-24T00:50:34.154Z,2.20
2022-11-24T00:53:35.485Z,2.13
2022-11-24T00:56:36.807Z,2.03
2022-11-24T00:59:38.065Z,1.38
2022-11-24T01:02:39.517Z,3.17
2022-11-24T01:05:40.887Z,1.65
2022-11-24T01:08:42.184Z,1.83
2022-11-24T01:12:01.551Z,1.50
2022-11-24T01:15:02.807Z,1.50
2022-11-24T01:18:04.333Z,1.45
2022-11-24T01:21:09.841Z,1.33
2022-11-24T01:24:11.762Z,2.00
2022-11-24T01:27:13.012Z,1.77
2022-11-24T01:30:14.301Z,1.65
2022-11-24T01:33:15.560Z,2.35
2022-11-24T01:36:16.907Z,1.55
2022-11-24T01:39:18.151Z,1.67
2022-11-24T01:42:19.423Z,1.88
2022-11-24T01:45:29.888Z,1.55
2022-11-24T01:48:34.722Z,1.10
2022-11-24T01:54:39.891Z,1.10
2022-11-24T01:58:01.380Z,1.42
2022-11-24T02:01:02.706Z,1.27
2022-11-24T02:04:05.245Z,1.17
2022-11-24T02:07:07.126Z,1.10
2022-11-24T02:10:10.480Z,1.35
2022-11-24T02:13:12.027Z,1.20
2022-11-24T02:16:13.368Z,1.58
2022-11-24T02:19:19.874Z,1.23
2022-11-24T02:22:32.057Z,1.15
2022-11-24T02:25:33.344Z,1.10
2022-11-24T02:28:34.614Z,1.40
2022-11-24T02:31:36.020Z,1.25
2022-11-24T02:34:37.314Z,0.82
2022-11-24T02:37:38.557Z,1.52
2022-11-24T02:40:41.433Z,1.50
2022-11-24T02:43:44.177Z,1.70
2022-11-24T02:46:45.455Z,2.00
2022-11-24T02:49:46.737Z,1.60
2022-11-24T02:52:47.995Z,1.75
2022-11-24T02:55:49.305Z,2.47
2022-11-24T02:58:50.549Z,1.52
2022-11-24T03:01:51.924Z,1.83
2022-11-24T03:04:53.218Z,1.90
2022-11-24T03:07:54.476Z,1.40
2022-11-24T03:10:55.769Z,2.05
2022-11-24T03:13:57.009Z,1.55
2022-11-24T03:16:58.283Z,1.48
2022-11-24T03:20:04.991Z,1.85
2022-11-24T03:23:06.564Z,2.08
2022-11-24T03:26:12.315Z,2.20
2022-11-24T03:29:13.609Z,2.28
2022-11-24T03:32:14.845Z,1.98
2022-11-24T03:35:16.062Z,2.05
2022-11-24T03:38:17.309Z,2.10
2022-11-24T03:41:18.564Z,1.15
2022-11-24T03:44:19.800Z,1.65
2022-11-24T03:47:21.079Z,1.13
2022-11-24T03:50:22.333Z,1.52
2022-11-24T03:53:24.351Z,1.35
2022-11-24T03:56:25.596Z,2.10
2022-11-24T03:59:26.850Z,1.50
2022-11-24T04:02:28.126Z,1.50
2022-11-24T04:05:29.474Z,1.63
2022-11-24T04:08:30.723Z,1.67
2022-11-24T04:11:50.743Z,0.98
2022-11-24T04:14:51.982Z,0.90
2022-11-24T04:17:54.303Z,0.73
2022-11-24T04:20:55.686Z,1.08
2022-11-24T04:23:56.966Z,1.15
2022-11-24T04:26:58.216Z,1.73
2022-11-24T04:29:59.667Z,0.95
2022-11-24T04:33:00.923Z,1.30
2022-11-24T04:36:02.153Z,1.38
2022-11-24T04:39:25.671Z,1.13
2022-11-24T04:42:24.625Z,1.35
2022-11-24T04:45:25.922Z,1.60
2022-11-24T04:48:27.473Z,1.90
2022-11-24T04:51:28.738Z,1.70
2022-11-24T04:54:29.962Z,1.30
2022-11-24T04:57:31.216Z,1.55
2022-11-24T05:00:32.461Z,1.58
2022-11-24T05:03:34.097Z,1.52
2022-11-24T05:06:35.318Z,1.05
2022-11-24T05:09:59.647Z,1.73
2022-11-24T05:16:02.493Z,1.80
2022-11-24T05:19:03.828Z,1.60
2022-11-24T05:22:05.081Z,1.40
2022-11-24T05:25:06.422Z,1.38
2022-11-24T05:28:11.226Z,2.20
2022-11-24T05:34:14.121Z,1.63
2022-11-24T05:37:15.392Z,1.63
2022-11-24T05:40:16.808Z,1.80
2022-11-24T05:43:18.423Z,1.25
2022-11-24T05:46:19.698Z,1.33
2022-11-24T05:49:20.984Z,1.77
2022-11-24T05:52:22.276Z,1.67
2022-11-24T05:55:23.521Z,1.38
2022-11-24T05:58:24.794Z,2.10
2022-11-24T06:01:26.038Z,1.25
2022-11-24T06:04:27.293Z,1.17
2022-11-24T06:07:28.629Z,1.23
2022-11-24T06:10:30.000Z,1.55
2022-11-24T06:13:31.365Z,1.58
2022-11-24T06:16:33.206Z,1.88
2022-11-24T06:19:37.469Z,1.42
2022-11-24T06:22:42.894Z,1.13
2022-11-24T06:25:47.368Z,1.50
2022-11-24T06:28:52.614Z,1.48
2022-11-24T06:31:53.956Z,1.50
2022-11-24T06:34:55.647Z,1.60
2022-11-24T06:37:56.892Z,1.52
2022-11-24T06:40:59.014Z,1.42
2022-11-24T06:44:02.040Z,1.58
2022-11-24T06:47:03.370Z,1.83
2022-11-24T06:50:04.935Z,1.63
2022-11-24T06:53:07.794Z,1.70
2022-11-24T06:56:15.837Z,2.10
2022-11-24T06:59:19.552Z,1.92
2022-11-24T07:02:20.814Z,2.10
2022-11-24T07:05:22.074Z,2.08
2022-11-24T07:08:23.603Z,1.65
2022-11-24T07:11:24.942Z,1.38
2022-11-24T07:14:26.252Z,1.52
2022-11-24T07:17:27.532Z,1.30
2022-11-24T07:20:28.955Z,1.85
2022-11-24T07:23:30.283Z,1.60
2022-11-24T07:26:37.089Z,1.83
2022-11-24T07:29:38.359Z,1.77
2022-11-24T07:32:39.618Z,1.88
2022-11-24T07:35:40.881Z,2.28
2022-11-24T07:38:42.128Z,2.45
2022-11-24T07:41:43.430Z,1.42
2022-11-24T07:44:44.728Z,1.95
2022-11-24T07:47:46.073Z,2.50
2022-11-24T07:50:52.542Z,2.50
2022-11-24T07:53:56.769Z,1.88
2022-11-24T07:56:58.014Z,1.88
2022-11-24T07:59:59.326Z,2.25
2022-11-24T08:03:00.716Z,1.90
2022-11-24T08:09:23.271Z,2.05
2022-11-24T08:12:24.570Z,1.05
2022-11-24T08:15:25.887Z,1.63
2022-11-24T08:18:27.799Z,2.20
2022-11-24T08:21:29.149Z,1.52
2022-11-24T08:24:31.424Z,1.77
2022-11-24T08:27:32.822Z,1.20
2022-11-24T08:30:34.076Z,1.92
2022-11-24T08:33:35.808Z,1.83
2022-11-24T08:36:37.075Z,1.67
2022-11-24T08:39:38.437Z,1.17
2022-11-24T08:42:39.857Z,1.50
2022-11-24T08:45:41.918Z,1.05
2022-11-24T08:48:44.102Z,2.10
2022-11-24T08:51:48.463Z,2.00
2022-11-24T08:54:50.384Z,1.10
2022-11-24T08:57:51.627Z,1.45
2022-11-24T09:00:52.930Z,1.15
2022-11-24T09:03:54.343Z,1.50
2022-11-24T09:06:55.690Z,1.45
2022-11-24T09:09:57.033Z,2.10
2022-11-24T09:12:58.340Z,2.10
2022-11-24T09:16:03.446Z,1.20
2022-11-24T09:19:05.937Z,1.40
2022-11-24T09:22:07.238Z,1.23
2022-11-24T09:25:09.123Z,1.73
2022-11-24T09:28:10.340Z,0.88
2022-11-24T09:31:12.628Z,0.95
2022-11-24T09:34:15.433Z,1.30
2022-11-24T09:37:17.194Z,1.08
2022-11-24T09:40:18.703Z,0.52
2022-11-24T09:43:26.321Z,0.80
2022-11-24T09:46:35.507Z,1.58
2022-11-24T09:49:55.847Z,1.35
2022-11-24T09:53:17.622Z,1.00
2022-11-24T09:56:20.829Z,1.20
2022-11-24T09:59:23.183Z,1.08
2022-11-24T10:02:24.443Z,1.10
2022-11-24T10:05:27.058Z,0.90
2022-11-24T10:08:38.474Z,1.88
2022-11-24T10:11:51.821Z,1.05
2022-11-24T10:14:53.287Z,1.13
2022-11-24T10:17:54.555Z,1.60
2022-11-24T10:21:04.800Z,1.15
2022-11-24T10:24:06.012Z,1.15
2022-11-24T10:27:13.690Z,0.93
2022-11-24T10:30:17.151Z,1.15
2022-11-24T10:33:20.266Z,0.88
2022-11-24T10:36:28.532Z,1.00
2022-11-24T10:39:39.339Z,1.02
2022-11-24T10:42:40.605Z,1.48
2022-11-24T10:45:41.982Z,1.05
2022-11-24T10:48:48.923Z,1.10
2022-11-24T10:52:01.435Z,1.23
2022-11-24T10:55:04.627Z,0.93
2022-11-24T10:58:14.918Z,1.00
2022-11-24T11:01:21.093Z,1.50
2022-11-24T11:04:29.905Z,1.35
2022-11-24T11:07:31.285Z,1.42
2022-11-24T11:10:32.560Z,0.82
2022-11-24T11:13:33.886Z,1.02
2022-11-24T11:16:36.917Z,1.50
2022-11-24T11:20:01.701Z,1.45
2022-11-24T11:23:03.473Z,0.98
2022-11-24T11:26:20.232Z,0.90
2022-11-24T11:36:13.678Z,0.95
2022-11-24T11:39:26.577Z,0.70
2022-11-24T11:43:01.205Z,0.98
2022-11-24T11:46:20.113Z,1.90
2022-11-24T11:49:21.546Z,1.00
2022-11-24T11:52:33.383Z,1.05
2022-11-24T11:55:43.959Z,1.25
2022-11-24T11:58:47.911Z,1.38
2022-11-24T12:02:02.772Z,1.20
2022-11-24T12:05:24.249Z,1.05
2022-11-24T12:08:43.955Z,1.02
2022-11-24T12:12:01.102Z,0.93
2022-11-24T12:15:15.106Z,0.93
2022-11-24T12:18:55.997Z,1.13
2022-11-24T12:24:56.996Z,1.20
2022-11-24T12:28:01.376Z,1.25
2022-11-24T12:31:17.204Z,1.88
2022-11-24T12:34:27.118Z,1.00
2022-11-24T12:37:28.388Z,1.50
2022-11-24T12:40:40.883Z,1.10
2022-11-24T12:43:52.971Z,1.00
2022-11-24T12:47:07.246Z,2.00
2022-11-24T12:50:10.327Z,0.88
2022-11-24T12:53:19.533Z,0.95
2022-11-24T12:56:25.248Z,0.93
2022-11-24T12:59:26.523Z,1.00
2022-11-24T13:02:40.482Z,1.23
2022-11-24T13:05:41.784Z,0.85
2022-11-24T13:08:43.290Z,0.90
2022-11-24T13:11:45.763Z,0.65
2022-11-24T13:14:48.293Z,1.13
2022-11-24T13:18:06.745Z,0.93
2022-11-24T13:21:29.828Z,1.45
2022-11-24T13:24:33.683Z,0.98
2022-11-24T13:27:42.477Z,1.15
2022-11-24T13:30:54.374Z,1.00
2022-11-24T13:33:55.765Z,1.30
2022-11-24T13:36:57.101Z,0.52
2022-11-24T13:40:20.620Z,1.65
2022-11-24T13:43:22.072Z,1.02
2022-11-24T13:46:43.315Z,0.77
2022-11-24T13:49:46.496Z,0.82
2022-11-24T13:53:06.346Z,1.73
2022-11-24T13:56:13.468Z,1.25
2022-11-24T13:59:16.802Z,1.17
2022-11-24T14:02:21.425Z,1.60
2022-11-24T14:05:26.640Z,1.58
2022-11-24T14:08:36.011Z,1.80
2022-11-24T14:11:37.428Z,1.52
2022-11-24T14:14:38.901Z,1.30
2022-11-24T14:17:40.282Z,0.90
2022-11-24T14:20:41.578Z,1.00
2022-11-24T14:23:44.599Z,1.08
2022-11-24T14:26:46.983Z,1.08
2022-11-24T14:29:54.217Z,1.10
2022-11-24T14:32:56.197Z,1.63
2022-11-24T14:35:57.408Z,1.10
2022-11-24T14:38:58.789Z,0.93
2022-11-24T14:42:15.936Z,1.00
2022-11-24T14:45:17.792Z,1.30
2022-11-24T14:48:21.220Z,1.00
2022-11-24T14:51:28.071Z,1.60
2022-11-24T14:54:30.165Z,1.35
2022-11-24T14:57:31.463Z,0.90
2022-11-24T15:00:33.402Z,1.23
2022-11-24T15:03:34.755Z,1.30
2022-11-24T15:06:36.446Z,1.40
2022-11-24T15:09:46.917Z,1.10
2022-11-24T15:12:51.168Z,1.17
2022-11-24T15:16:02.129Z,1.30
2022-11-24T15:19:04.099Z,1.25
2022-11-24T15:22:24.177Z,1.23
2022-11-24T15:25:26.875Z,1.00
2022-11-24T15:28:29.555Z,1.45
2022-11-24T15:31:31.954Z,1.33
2022-11-24T15:34:33.405Z,1.63
2022-11-24T15:37:34.752Z,1.50
2022-11-24T15:40:37.060Z,0.88
2022-11-24T15:43:41.317Z,1.23
2022-11-24T15:46:42.633Z,3.10
2022-11-24T15:49:43.980Z,2.30
2022-11-24T15:52:45.875Z,2.97
2022-11-24T15:55:47.421Z,2.20
2022-11-24T15:58:48.676Z,1.55
2022-11-24T16:01:50.566Z,2.22
2022-11-24T16:04:51.961Z,2.03
2022-11-24T16:07:53.316Z,3.20
2022-11-24T16:10:54.693Z,3.28
2022-11-24T16:13:56.139Z,3.70
2022-11-24T16:16:57.460Z,4.57
2022-11-24T16:20:00.704Z,4.68
2022-11-24T16:23:03.484Z,5.00
2022-11-24T16:26:05.271Z,4.32
2022-11-24T16:29:06.687Z,3.55
2022-11-24T16:32:08.021Z,3.20
2022-11-24T16:35:09.448Z,3.00
2022-11-24T16:38:14.903Z,3.67
2022-11-24T16:41:16.316Z,2.45
2022-11-24T16:44:17.605Z,2.03
2022-11-24T16:47:18.987Z,2.47
2022-11-24T16:50:20.282Z,2.33
2022-11-24T16:53:21.636Z,2.17
2022-11-24T16:56:22.909Z,2.78
2022-11-24T16:59:24.186Z,2.25
2022-11-24T17:02:25.780Z,3.25
2022-11-24T17:05:27.374Z,2.70
2022-11-24T17:08:32.398Z,3.08
2022-11-24T17:11:33.647Z,2.35
2022-11-24T17:14:35.156Z,1.88
2022-11-24T17:17:37.677Z,3.13
2022-11-24T17:20:39.039Z,2.47
2022-11-24T17:23:40.328Z,3.30
2022-11-24T17:26:46.033Z,3.63
2022-11-24T17:29:49.952Z,3.55
2022-11-24T17:32:56.429Z,3.55
2022-11-24T17:36:01.118Z,3.00
2022-11-24T17:39:04.465Z,2.78
2022-11-24T17:42:05.814Z,3.85
2022-11-24T17:45:07.330Z,4.38
2022-11-24T17:48:08.685Z,5.47
2022-11-24T17:51:14.296Z,5.25
2022-11-24T17:57:37.170Z,3.78
2022-11-24T18:00:38.617Z,3.47
2022-11-24T18:03:40.413Z,3.22
2022-11-24T18:06:41.760Z,3.28
2022-11-24T18:09:43.972Z,5.93
2022-11-24T18:12:45.261Z,7.30
2022-11-24T18:15:46.520Z,5.55
2022-11-24T18:18:50.451Z,4.72
2022-11-24T18:21:52.428Z,4.28
2022-11-24T18:24:53.707Z,4.68
2022-11-24T18:27:55.123Z,6.15
2022-11-24T18:31:02.301Z,4.43
2022-11-24T18:34:04.416Z,6.63
2022-11-24T18:37:05.802Z,5.05
2022-11-24T18:40:07.517Z,4.30
2022-11-24T18:43:08.789Z,3.80
2022-11-24T18:46:12.077Z,3.15
2022-11-24T18:49:13.382Z,3.33
2022-11-24T18:52:14.745Z,3.28
2022-11-24T18:55:16.042Z,3.60
2022-11-24T18:58:17.319Z,4.57
2022-11-24T19:01:19.698Z,3.53
2022-11-24T19:04:21.019Z,4.40
2022-11-24T19:07:22.406Z,4.22
2022-11-24T19:10:23.762Z,4.72
2022-11-24T19:13:25.156Z,3.75
2022-11-24T19:16:26.551Z,3.10
2022-11-24T19:19:28.916Z,4.30
2022-11-24T19:22:30.187Z,3.92
2022-11-24T19:25:31.549Z,2.78
2022-11-24T19:28:32.989Z,3.13
2022-11-24T19:31:35.293Z,2.72
2022-11-24T19:34:36.994Z,3.05
2022-11-24T19:37:38.594Z,2.60
2022-11-24T19:40:39.874Z,2.88
2022-11-24T19:43:41.412Z,2.92
2022-11-24T19:46:42.713Z,3.17
2022-11-24T19:49:44.086Z,4.00
2022-11-24T19:52:47.514Z,2.97
2022-11-24T19:55:48.785Z,3.75
2022-11-24T19:58:50.675Z,2.97
2022-11-24T20:01:52.379Z,4.20
2022-11-24T20:04:53.816Z,3.05
2022-11-24T20:07:55.148Z,2.80
2022-11-24T20:11:06.490Z,2.50
2022-11-24T20:14:09.516Z,3.00
2022-11-24T20:17:12.213Z,2.67
2022-11-24T20:20:13.520Z,3.95
2022-11-24T20:23:14.775Z,3.53
2022-11-24T20:26:19.394Z,2.53
2022-11-24T20:29:20.727Z,2.63
2022-11-24T20:32:22.108Z,3.35
2022-11-24T20:35:23.438Z,2.80
2022-11-24T20:38:24.667Z,2.95
2022-11-24T20:41:27.412Z,2.78
2022-11-24T20:44:29.788Z,1.92
2022-11-24T20:47:31.144Z,6.43
2022-11-24T20:50:35.579Z,9.15
2022-11-24T20:53:37.424Z,8.82
2022-11-24T20:56:42.356Z,5.00
2022-11-24T20:59:43.727Z,3.83
2022-11-24T21:02:45.052Z,3.17
2022-11-24T21:05:46.459Z,2.83
2022-11-24T21:08:47.811Z,2.80
2022-11-24T21:11:49.157Z,2.13
2022-11-24T21:14:50.482Z,3.05
2022-11-24T21:17:51.802Z,3.13
2022-11-24T21:20:53.361Z,3.60
2022-11-24T21:23:54.650Z,3.63
2022-11-24T21:26:55.947Z,3.42
2022-11-24T21:29:57.233Z,2.65
2022-11-24T21:32:58.575Z,3.42
2022-11-24T21:36:03.475Z,2.50
2022-11-24T21:42:06.089Z,2.40
2022-11-24T21:45:10.612Z,1.88
2022-11-24T21:48:12.015Z,2.08
2022-11-24T21:51:14.592Z,2.13
2022-11-24T21:54:15.889Z,1.98
2022-11-24T21:57:17.912Z,2.17
2022-11-24T22:00:19.520Z,1.90
2022-11-24T22:03:20.845Z,2.10
2022-11-24T22:06:22.446Z,2.05
2022-11-24T22:09:23.719Z,2.38
2022-11-24T22:12:25.116Z,2.65
2022-11-24T22:15:26.363Z,3.60
2022-11-24T22:18:30.002Z,3.15
2022-11-24T22:21:33.352Z,2.35
2022-11-24T22:24:34.694Z,2.90
2022-11-24T22:27:35.960Z,1.80
2022-11-24T22:30:37.254Z,1.65
2022-11-24T22:33:38.786Z,1.92
2022-11-24T22:36:40.135Z,2.85
2022-11-24T22:39:41.393Z,2.40
2022-11-24T22:42:42.678Z,3.90
2022-11-24T22:45:44.019Z,2.63
2022-11-24T22:48:46.480Z,2.28
2022-11-24T22:51:47.837Z,1.83
2022-11-24T22:54:49.119Z,1.77
2022-11-24T22:57:52.281Z,3.10
2022-11-24T23:00:56.045Z,2.33
2022-11-24T23:03:57.466Z,2.42
2022-11-24T23:06:59.860Z,2.35
2022-11-24T23:10:01.231Z,2.13
2022-11-24T23:13:02.469Z,1.98
2022-11-24T23:16:08.062Z,2.60
2022-11-24T23:19:09.393Z,2.35
2022-11-24T23:22:10.703Z,2.75
2022-11-24T23:25:11.951Z,2.28
2022-11-24T23:28:13.262Z,1.95
2022-11-24T23:31:16.110Z,2.03
2022-11-24T23:34:17.491Z,1.40
2022-11-24T23:37:18.814Z,1.83
2022-11-24T23:40:20.092Z,1.83
2022-11-24T23:43:21.337Z,2.10
2022-11-24T23:46:23.766Z,2.28
2022-11-24T23:49:25.086Z,2.25
2022-11-24T23:52:26.337Z,1.88
2022-11-24T23:55:27.610Z,2.17
2022-11-24T23:58:29.335Z,2.03
